Meredith, CO (81642)

11:11 PM MST on February 06, 2016 (GMT -0700)
MesoWest | | Change Station
CLOSE
Current Station
Personal Weather Station
Location: Meredith, CO
Elevation: 9600 ft
Nearby Weather Stations

Elev 9600 ft 39.32 °N, 106.61 °W | Updated 1 hour ago

Clear
Clear
11.0 °F
Feels Like 11.0 °F
N
0.0
Wind Variable Wind from North
Gusts 0.0 mph

Today
High -- | Low -- °F
--% Chance of Precip.
Yesterday
High -- | Low -- °F
Precip. -- in
Pressure 30.53 in
Visibility 10.0 miles
Clouds Clear
Dew Point Not available.
Humidity Not available.
Rainfall in
Snow Depth Not available.
7:09 AM 5:32 PM
Waning Crescent, 2% visible
METAR KASE 070553Z 18005KT 10SM CLR M12/M15 A3039 RMK AO2 SLP339 T11221150 11033 21122 53003
Pressure 30.53 in
Visibility 10.0 miles
Clouds Clear
Dew Point Not available.
Humidity Not available.
Rainfall in
Snow Depth Not available.
7:09 AM 5:32 PM
Waning Crescent, 2% visible
METAR KASE 070553Z 18005KT 10SM CLR M12/M15 A3039 RMK AO2 SLP339 T11221150 11033 21122 53003

10-Day Weather Forecast

Almanac

Astronomy

Feb. 06, 2016 Rise Set
Actual Time
Civil Twilight
Nautical Twilight
Astronomical Twilight
Moon
Length of Visible Light
Length of Day
Tomorrow will be .
, % of the Moon is Illuminated

Today's Extremes

State Highs State Lows

Community

WunderPhotos

Upload Photos

1,891,173 photos uploaded!

WunderBlog® & News

Nearby

Air Quality

  Air Quality AQ Index Pollutant
Not available.

Snow Depth

Station Depth Elevation

Earthquake Activity

City Distance Mag. Time & Date
Minimum magnitude displayed is 2.5.

Coastal Water Temperatures

Place Temperature

Stations

Nearby Weather Stations

Station Location Temp. Windchill Dew Point Humidity Wind Precip. Elev Updated Type
                   

Watches & Warnings

There are currently no watches in effect.